Houston, Texas
Traffic Map
Current Weather Conditions
Houston, Texas
Clear
Clear
24°
Feels Like: 24°
Wind Chill: 24° Ceiling: Unl
Heat Index: 24° Visibility: 10mi
Dew Point: 13° Wind: 0mph
Humidity: 50% Direction: ° ()
Pressure: 30.16in Gusts: 0mph
Raw Report DataKMCJ 251555Z AUTO 00000KT 10SM CLR 24/13 A3016 RMK AO1
Traffic Incident Summary
Active as of:
Severity:
Category:
InformationThere was an issue retrieving the traffic information for this location. Please try a different location or try again shortly.
Advertisements
Track Severe Weather on mobile